Time;durP1;ratioP1;P1;durP2;ratioP2;P2;SDS_P1;SDS_P2;PMS_P1;PMS_P2;Temp;Humidity;BMP_temperature;BMP_pressure;BME280_temperature;BME280_humidity;BME280_pressure;Samples;Min_cycle;Max_cycle;Signal;HPM_P1;HPM_P2
2022/09/28 00:02:07;;;;;;;0.30;0.30;;;9.10;99.90;;;;;;5064900;28;20025;-78
2022/09/28 00:04:33;;;;;;;0.20;0.20;;;9.10;99.90;;;;;;5065417;28;20025;-78
2022/09/28 00:06:59;;;;;;;0.20;0.20;;;9.20;99.90;;;;;;5064470;28;20013;-78
2022/09/28 00:09:25;;;;;;;0.20;0.20;;;9.10;99.90;;;;;;5063745;28;20025;-78
2022/09/28 00:11:52;;;;;;;0.75;0.75;;;9.10;99.90;;;;;;5063812;28;20060;-78
2022/09/28 00:14:19;;;;;;;9.77;8.88;;;9.10;99.90;;;;;;5063988;28;20028;-78
2022/09/28 00:16:45;;;;;;;0.40;0.40;;;9.10;99.90;;;;;;5047441;28;20024;-78
2022/09/28 00:19:12;;;;;;;0.20;0.20;;;9.00;99.90;;;;;;5064536;28;20033;-78
2022/09/28 00:21:40;;;;;;;0.20;0.20;;;9.00;99.90;;;;;;5046159;28;20476;-78
2022/09/28 00:24:15;;;;;;;0.22;0.22;;;8.90;99.90;;;;;;5069613;22;20080;-73
2022/09/28 00:26:48;;;;;;;0.20;0.20;;;8.90;99.90;;;;;;5053538;28;20021;-73
2022/09/28 00:29:25;;;;;;;0.10;0.10;;;8.80;99.90;;;;;;5037188;28;20028;-74
2022/09/28 00:31:58;;;;;;;0.20;0.20;;;8.80;99.90;;;;;;5037184;28;20483;-74
2022/09/28 00:34:30;;;;;;;0.20;0.20;;;8.80;99.90;;;;;;5055358;28;20109;-74
2022/09/28 00:36:57;;;;;;;0.30;0.30;;;8.80;99.90;;;;;;5054810;28;20388;-74
2022/09/28 00:39:23;;;;;;;0.20;0.20;;;8.80;99.90;;;;;;5054881;28;20104;-74
2022/09/28 00:41:49;;;;;;;0.20;0.20;;;8.70;99.90;;;;;;5054860;28;20484;-73
2022/09/28 00:44:36;;;;;;;0.10;0.10;;;8.80;99.90;;;;;;5053461;28;20029;-74
2022/09/28 00:47:24;;;;;;;0.20;0.20;;;8.80;99.90;;;;;;5036763;28;20480;-74
2022/09/28 00:50:32;;;;;;;0.20;0.20;;;8.80;99.90;;;;;;5054650;28;20045;-74
2022/09/28 00:53:01;;;;;;;0.10;0.10;;;8.70;99.90;;;;;;4992849;28;20035;-73
2022/09/28 00:55:36;;;;;;;0.10;0.10;;;8.60;99.90;;;;;;4976602;28;20041;-74
2022/09/28 00:58:06;;;;;;;0.20;0.20;;;8.70;99.90;;;;;;5026240;28;20041;-74
2022/09/28 01:00:31;;;;;;;0.20;0.20;;;8.70;99.90;;;;;;5054465;28;20026;-74
2022/09/28 01:02:58;;;;;;;0.20;0.20;;;8.70;99.90;;;;;;5054333;28;20029;-74
2022/09/28 01:05:25;;;;;;;0.10;0.10;;;8.70;99.90;;;;;;5053041;28;20419;-74
2022/09/28 01:07:52;;;;;;;0.10;0.10;;;8.60;99.90;;;;;;5052934;28;20096;-74
2022/09/28 01:10:18;;;;;;;0.10;0.10;;;8.60;99.90;;;;;;5052600;28;20024;-73
2022/09/28 01:12:44;;;;;;;0.20;0.20;;;8.60;99.90;;;;;;5054239;28;20079;-74
2022/09/28 01:15:10;;;;;;;0.10;0.10;;;8.60;99.90;;;;;;5052717;28;20025;-74
2022/09/28 01:17:53;;;;;;;0.10;0.10;;;8.60;99.90;;;;;;5054048;28;20056;-74
2022/09/28 01:20:55;;;;;;;0.17;0.17;;;8.50;99.90;;;;;;5053937;28;20032;-74
2022/09/28 01:23:55;;;;;;;0.20;0.20;;;8.60;99.90;;;;;;5052486;28;20388;-74
2022/09/28 01:26:24;;;;;;;0.10;0.10;;;8.50;99.90;;;;;;5063747;28;20029;-74
2022/09/28 01:28:54;;;;;;;0.10;0.10;;;8.60;99.90;;;;;;5052471;28;20036;-73
2022/09/28 01:31:25;;;;;;;0.10;0.10;;;8.70;99.90;;;;;;5053951;28;20224;-74
2022/09/28 01:34:18;;;;;;;0.10;0.10;;;8.70;99.90;;;;;;5035785;28;20037;-71
2022/09/28 01:36:49;;;;;;;0.20;0.20;;;8.80;99.90;;;;;;5039153;28;20291;-72
2022/09/28 01:39:30;;;;;;;0.20;0.20;;;8.90;99.90;;;;;;5035879;28;20033;-74
2022/09/28 01:42:00;;;;;;;0.20;0.20;;;8.80;99.90;;;;;;5035844;28;20033;-72
2022/09/28 01:44:30;;;;;;;0.20;0.20;;;8.80;99.90;;;;;;5035373;28;20506;-72
2022/09/28 01:47:03;;;;;;;0.10;0.10;;;8.70;99.90;;;;;;5053458;28;20499;-72
2022/09/28 01:49:34;;;;;;;0.10;0.10;;;8.80;99.90;;;;;;5053590;28;20100;-72
2022/09/28 01:52:03;;;;;;;0.20;0.20;;;8.90;99.90;;;;;;5053423;28;20029;-72
2022/09/28 01:54:40;;;;;;;0.10;0.10;;;8.90;99.90;;;;;;5052068;28;20397;-70
2022/09/28 01:57:32;;;;;;;0.28;0.28;;;8.90;99.90;;;;;;5052148;28;20388;-72
2022/09/28 02:00:03;;;;;;;0.20;0.20;;;8.80;99.90;;;;;;5052167;28;20061;-72
2022/09/28 02:02:38;;;;;;;0.20;0.20;;;8.80;99.90;;;;;;5051762;28;20036;-72
2022/09/28 02:05:10;;;;;;;0.20;0.20;;;8.80;99.90;;;;;;5035148;28;20021;-71
2022/09/28 02:07:47;;;;;;;0.20;0.20;;;8.70;99.90;;;;;;5053170;28;20108;-72
2022/09/28 02:10:18;;;;;;;0.20;0.20;;;8.80;99.90;;;;;;5035251;28;20024;-71
2022/09/28 02:13:08;;;;;;;0.20;0.20;;;8.80;99.90;;;;;;5051887;28;20061;-72
2022/09/28 02:15:46;;;;;;;0.20;0.20;;;8.90;99.90;;;;;;5052956;28;20039;-72
2022/09/28 02:18:12;;;;;;;0.20;0.20;;;9.00;99.90;;;;;;5051178;28;20036;-72
2022/09/28 02:20:41;;;;;;;0.20;0.20;;;9.00;99.90;;;;;;5051630;28;20029;-72
2022/09/28 02:23:09;;;;;;;0.20;0.20;;;9.00;99.90;;;;;;5051322;28;20082;-72
2022/09/28 02:25:59;;;;;;;0.20;0.20;;;9.00;99.90;;;;;;5052752;28;20040;-72
2022/09/28 02:28:25;;;;;;;0.20;0.20;;;8.90;99.90;;;;;;5052867;28;20018;-72
2022/09/28 02:30:51;;;;;;;0.20;0.20;;;8.80;99.90;;;;;;5051497;28;20021;-72
2022/09/28 02:33:32;;;;;;;0.17;0.17;;;8.80;99.90;;;;;;5052723;28;20075;-72
2022/09/28 02:35:59;;;;;;;0.20;0.20;;;9.00;99.90;;;;;;5052959;28;20017;-72
2022/09/28 02:38:25;;;;;;;0.17;0.17;;;8.80;99.90;;;;;;5051350;28;20033;-72
2022/09/28 02:41:10;;;;;;;0.10;0.10;;;8.90;99.90;;;;;;5052527;28;20025;-72
2022/09/28 02:44:13;;;;;;;0.10;0.10;;;8.70;99.90;;;;;;5051312;28;20032;-71
2022/09/28 02:46:54;;;;;;;0.10;0.10;;;8.70;99.90;;;;;;5034464;28;20032;-72
2022/09/28 02:49:31;;;;;;;0.20;0.20;;;8.60;99.90;;;;;;5051491;28;20039;-71
2022/09/28 02:52:03;;;;;;;0.20;0.20;;;8.60;99.90;;;;;;5052517;28;20480;-71
2022/09/28 02:54:42;;;;;;;0.10;0.10;;;8.60;99.90;;;;;;5052417;28;20515;-72
2022/09/28 02:57:36;;;;;;;0.10;0.10;;;8.50;99.90;;;;;;5052253;28;20044;-71
2022/09/28 03:00:11;;;;;;;0.20;0.20;;;8.60;99.90;;;;;;5034273;28;20033;-72
2022/09/28 03:03:01;;;;;;;0.17;0.17;;;8.70;99.90;;;;;;5052015;28;20025;-72
2022/09/28 03:05:48;;;;;;;0.10;0.10;;;8.70;99.90;;;;;;5034153;28;20090;-72
2022/09/28 03:08:23;;;;;;;0.20;0.20;;;8.60;99.90;;;;;;5050968;28;20202;-72
2022/09/28 03:10:55;;;;;;;0.20;0.20;;;8.50;99.90;;;;;;5050942;28;20049;-72
2022/09/28 03:13:21;;;;;;;0.10;0.10;;;8.40;99.90;;;;;;5052102;28;20032;-71
2022/09/28 03:15:47;;;;;;;0.13;0.13;;;8.40;99.90;;;;;;5051871;28;20029;-71
2022/09/28 03:18:13;;;;;;;0.13;0.13;;;8.60;99.90;;;;;;5050677;28;20502;-72
2022/09/28 03:20:38;;;;;;;0.15;0.15;;;8.80;99.90;;;;;;5052006;28;20028;-72
2022/09/28 03:23:04;;;;;;;0.10;0.10;;;8.90;99.90;;;;;;5050318;28;20106;-72
2022/09/28 03:25:30;;;;;;;0.10;0.10;;;9.00;99.90;;;;;;5051846;28;20100;-72
2022/09/28 03:27:56;;;;;;;0.20;0.20;;;9.00;99.90;;;;;;5051920;28;20017;-72
2022/09/28 03:30:22;;;;;;;0.20;0.20;;;9.10;99.90;;;;;;5050941;28;20100;-72
2022/09/28 03:32:59;;;;;;;0.20;0.20;;;9.20;99.90;;;;;;5050530;28;20029;-72
2022/09/28 03:35:25;;;;;;;0.20;0.20;;;9.20;99.90;;;;;;5050481;28;20025;-72
2022/09/28 03:37:55;;;;;;;0.10;0.10;;;9.30;99.90;;;;;;5051820;28;20091;-72
2022/09/28 03:40:21;;;;;;;0.20;0.20;;;9.30;99.90;;;;;;5051794;28;20596;-72
2022/09/28 03:42:46;;;;;;;0.20;0.20;;;9.20;99.90;;;;;;5033678;28;20189;-72
2022/09/28 03:45:12;;;;;;;0.20;0.20;;;9.10;99.90;;;;;;5051462;28;20108;-72
2022/09/28 03:47:38;;;;;;;0.10;0.10;;;9.20;99.90;;;;;;5050421;28;20056;-72
2022/09/28 03:50:04;;;;;;;0.20;0.20;;;9.20;99.90;;;;;;5051757;28;20025;-72
2022/09/28 03:52:31;;;;;;;0.20;0.20;;;9.40;99.90;;;;;;5050553;28;20060;-72
2022/09/28 03:54:57;;;;;;;0.20;0.20;;;9.50;99.90;;;;;;5050114;28;20025;-72
2022/09/28 03:57:22;;;;;;;0.20;0.20;;;9.40;99.90;;;;;;5051609;28;20088;-72
2022/09/28 03:59:48;;;;;;;0.20;0.20;;;9.30;99.90;;;;;;5051596;28;20025;-72
2022/09/28 04:02:14;;;;;;;0.10;0.10;;;9.30;99.90;;;;;;5051441;28;20576;-72
2022/09/28 04:04:40;;;;;;;0.10;0.10;;;9.20;99.90;;;;;;5050087;28;20116;-71
2022/09/28 04:07:05;;;;;;;0.17;0.17;;;9.30;99.90;;;;;;5050162;28;20029;-71
2022/09/28 04:09:31;;;;;;;0.13;0.13;;;9.40;99.90;;;;;;5049410;28;20118;-72
2022/09/28 04:11:57;;;;;;;0.20;0.20;;;9.30;99.90;;;;;;5058852;28;20492;-72
2022/09/28 04:14:23;;;;;;;0.20;0.20;;;9.30;99.90;;;;;;5061287;28;20028;-72
2022/09/28 04:16:53;;;;;;;0.20;0.20;;;9.40;99.90;;;;;;5071357;28;20021;-72
2022/09/28 04:19:19;;;;;;;0.10;0.10;;;9.40;99.90;;;;;;5054598;28;20076;-72
2022/09/28 04:21:45;;;;;;;0.10;0.10;;;9.30;99.90;;;;;;5051391;28;20021;-72
2022/09/28 04:24:11;;;;;;;0.20;0.20;;;9.10;99.90;;;;;;5049904;28;20507;-72
2022/09/28 04:26:37;;;;;;;0.20;0.20;;;9.00;99.90;;;;;;5049707;28;20022;-72
2022/09/28 04:29:17;;;;;;;0.10;0.10;;;8.90;99.90;;;;;;5049921;28;20099;-71
2022/09/28 04:31:48;;;;;;;0.20;0.20;;;8.60;99.90;;;;;;5049917;28;20453;-72
2022/09/28 04:34:16;;;;;;;0.20;0.20;;;8.40;99.90;;;;;;5051198;28;20035;-71
2022/09/28 04:36:43;;;;;;;0.30;0.30;;;8.50;99.90;;;;;;5051104;28;20035;-71
2022/09/28 04:39:10;;;;;;;0.52;0.52;;;8.60;99.90;;;;;;5051355;28;20534;-72
2022/09/28 04:41:36;;;;;;;0.20;0.20;;;8.50;99.90;;;;;;5059489;28;20031;-70
2022/09/28 04:44:02;;;;;;;0.40;0.40;;;8.40;99.90;;;;;;5068218;28;20111;-72
2022/09/28 04:46:28;;;;;;;0.20;0.20;;;8.30;99.90;;;;;;5074548;28;20020;-72
2022/09/28 04:48:54;;;;;;;0.10;0.10;;;8.30;99.90;;;;;;5053351;28;20071;-72
2022/09/28 04:51:19;;;;;;;0.10;0.10;;;8.40;99.90;;;;;;5054358;28;20028;-72
2022/09/28 04:53:45;;;;;;;0.20;0.20;;;8.60;99.90;;;;;;5054660;28;20025;-72
2022/09/28 04:56:13;;;;;;;0.10;0.10;;;8.70;99.90;;;;;;5063925;28;20078;-72
2022/09/28 04:58:39;;;;;;;0.13;0.13;;;8.80;99.90;;;;;;5074091;28;20099;-72
2022/09/28 05:01:14;;;;;;;0.20;0.20;;;8.80;99.90;;;;;;5053544;28;20025;-74
2022/09/28 05:03:40;;;;;;;0.10;0.10;;;8.70;99.90;;;;;;5059021;28;20522;-72
2022/09/28 05:06:06;;;;;;;0.32;0.17;;;8.70;99.90;;;;;;5072949;28;20095;-72
2022/09/28 05:08:34;;;;;;;0.20;0.20;;;8.80;99.90;;;;;;5064035;28;20100;-73
2022/09/28 05:11:09;;;;;;;0.13;0.13;;;8.80;99.90;;;;;;5054118;28;20025;-73
2022/09/28 05:13:44;;;;;;;0.20;0.20;;;8.80;99.90;;;;;;5054200;28;20028;-73
2022/09/28 05:16:11;;;;;;;0.20;0.20;;;8.80;99.90;;;;;;5057533;28;20383;-73
2022/09/28 05:18:37;;;;;;;0.20;0.20;;;8.70;99.90;;;;;;5074150;28;20489;-73
2022/09/28 05:21:07;;;;;;;0.20;0.20;;;8.80;99.90;;;;;;5071228;28;20039;-73
2022/09/28 05:23:33;;;;;;;0.10;0.10;;;9.00;99.90;;;;;;5052649;28;20396;-73
2022/09/28 05:26:00;;;;;;;0.35;0.35;;;9.00;99.90;;;;;;5035815;28;20021;-73
2022/09/28 05:28:28;;;;;;;0.10;0.10;;;8.90;99.90;;;;;;5052413;28;20393;-76
2022/09/28 05:30:59;;;;;;;0.20;0.20;;;9.00;99.90;;;;;;5053925;28;20025;-73
2022/09/28 05:33:25;;;;;;;0.20;0.20;;;8.90;99.90;;;;;;5058679;28;20043;-73
2022/09/28 05:35:51;;;;;;;0.30;0.30;;;8.70;99.90;;;;;;5072265;28;20434;-73
2022/09/28 05:38:17;;;;;;;0.20;0.20;;;8.40;99.90;;;;;;5073762;28;20104;-73
2022/09/28 05:40:43;;;;;;;0.20;0.20;;;8.30;99.90;;;;;;5072371;28;20029;-73
2022/09/28 05:43:08;;;;;;;0.20;0.20;;;8.40;99.90;;;;;;5073346;28;20500;-73
2022/09/28 05:45:34;;;;;;;0.20;0.20;;;8.60;99.90;;;;;;5070430;28;20559;-73
2022/09/28 05:48:00;;;;;;;0.20;0.20;;;8.80;99.90;;;;;;5051835;28;20074;-73
2022/09/28 05:50:26;;;;;;;0.20;0.20;;;8.80;99.90;;;;;;5053806;28;20029;-72
2022/09/28 05:53:03;;;;;;;0.10;0.10;;;8.90;99.90;;;;;;5069159;28;20025;-73
2022/09/28 05:55:29;;;;;;;0.10;0.10;;;9.00;99.90;;;;;;5051885;28;20492;-73
2022/09/28 05:58:03;;;;;;;0.20;0.20;;;9.10;99.90;;;;;;5053277;28;20033;-73
2022/09/28 06:00:31;;;;;;;0.13;0.13;;;9.10;99.90;;;;;;5053193;28;20021;-73
2022/09/28 06:02:56;;;;;;;0.20;0.20;;;9.20;99.90;;;;;;5051637;28;20025;-73
2022/09/28 06:05:23;;;;;;;0.20;0.20;;;9.30;99.90;;;;;;5052998;28;20025;-72
2022/09/28 06:07:49;;;;;;;0.17;0.17;;;9.10;99.90;;;;;;5053451;28;20070;-73
2022/09/28 06:10:15;;;;;;;0.10;0.10;;;9.00;99.90;;;;;;5053091;28;20024;-72
2022/09/28 06:12:41;;;;;;;0.10;0.10;;;9.00;99.90;;;;;;5053034;28;20032;-72
2022/09/28 06:15:07;;;;;;;0.10;0.10;;;9.10;99.90;;;;;;5052456;28;20025;-73
2022/09/28 06:17:32;;;;;;;0.20;0.20;;;9.10;99.90;;;;;;5052877;28;20052;-73
2022/09/28 06:19:58;;;;;;;0.10;0.10;;;9.10;99.90;;;;;;5052371;28;20021;-72
2022/09/28 06:22:24;;;;;;;5.80;0.63;;;9.20;99.90;;;;;;5034536;28;20032;-73
2022/09/28 06:25:00;;;;;;;0.20;0.20;;;9.10;99.90;;;;;;5076723;23;20178;-89
2022/09/28 06:31:42;;;;;;;0.20;0.20;;;9.10;99.90;;;;;;5053690;28;20468;-88
2022/09/28 06:34:11;;;;;;;0.20;0.20;;;9.30;99.90;;;;;;5036011;28;20090;-85
2022/09/28 06:36:38;;;;;;;1.00;0.55;;;9.10;99.90;;;;;;5037567;28;20036;-86
2022/09/28 06:39:04;;;;;;;0.10;0.10;;;9.30;99.90;;;;;;5047690;28;20039;-86
2022/09/28 06:41:29;;;;;;;0.10;0.10;;;9.10;99.90;;;;;;5052312;28;20021;-86
2022/09/28 06:44:37;;;;;;;0.10;0.10;;;9.30;99.90;;;;;;5051140;28;20032;-86
2022/09/28 06:47:03;;;;;;;0.10;0.10;;;9.30;99.90;;;;;;5063211;28;20097;-85
2022/09/28 06:49:42;;;;;;;;;;;;;;;;;;;;;
2022/09/28 06:52:11;;;;;;;0.20;0.20;;;9.20;99.90;;;;;;5053476;28;20466;-85
2022/09/28 06:54:37;;;;;;;0.20;0.20;;;9.40;99.90;;;;;;5069396;28;20043;-86
2022/09/28 06:57:12;;;;;;;0.10;0.10;;;9.50;99.90;;;;;;5038551;28;20033;-86
2022/09/28 06:59:56;;;;;;;0.13;0.13;;;9.40;99.90;;;;;;5055318;28;20029;-85
2022/09/28 07:02:35;;;;;;;0.20;0.20;;;9.40;99.90;;;;;;5036779;28;20040;-86
2022/09/28 07:05:01;;;;;;;0.10;0.10;;;9.40;99.90;;;;;;5041231;28;20022;-85
2022/09/28 07:07:30;;;;;;;0.20;0.20;;;9.20;99.90;;;;;;5032544;28;20510;-85
2022/09/28 07:09:59;;;;;;;0.10;0.10;;;9.20;99.90;;;;;;5037372;28;20041;-87
2022/09/28 07:12:33;;;;;;;0.10;0.10;;;9.20;99.90;;;;;;5035260;28;20035;-85
2022/09/28 07:15:18;;;;;;;0.10;0.10;;;9.20;99.90;;;;;;5017937;28;20067;-85
2022/09/28 07:18:04;;;;;;;0.20;0.20;;;9.10;99.90;;;;;;5017891;28;20123;-88
2022/09/28 07:20:37;;;;;;;0.15;0.15;;;9.10;99.90;;;;;;5034212;28;20513;-86
2022/09/28 07:23:18;;;;;;;0.10;0.10;;;9.10;99.90;;;;;;5019396;28;20030;-85
2022/09/28 07:25:53;;;;;;;0.20;0.20;;;9.10;99.90;;;;;;5018249;28;20029;-87
2022/09/28 07:28:22;;;;;;;0.32;0.32;;;9.00;99.90;;;;;;5033732;28;20056;-87
2022/09/28 07:30:54;;;;;;;0.40;0.32;;;9.00;99.90;;;;;;5034327;28;20021;-87
2022/09/28 07:33:33;;;;;;;0.17;0.17;;;8.90;99.90;;;;;;5035876;28;20037;-85
2022/09/28 07:36:01;;;;;;;0.30;0.30;;;9.00;99.90;;;;;;5046009;28;20059;-86
2022/09/28 07:38:29;;;;;;;0.35;0.35;;;9.10;99.90;;;;;;5040584;28;20033;-87
2022/09/28 07:41:10;;;;;;;0.77;0.50;;;9.00;99.90;;;;;;5037206;28;20052;-87
2022/09/28 07:44:16;;;;;;;0.90;0.63;;;9.00;99.90;;;;;;5037831;28;20036;-87
2022/09/28 07:46:56;;;;;;;3.00;0.65;;;8.80;99.90;;;;;;4989077;28;20042;-87
2022/09/28 07:49:38;;;;;;;0.55;0.55;;;8.70;99.90;;;;;;5020617;28;20037;-87
2022/09/28 07:52:07;;;;;;;0.15;0.15;;;8.60;99.90;;;;;;5038508;28;20070;-86
2022/09/28 07:54:35;;;;;;;0.35;0.20;;;8.60;99.90;;;;;;5039229;28;20489;-86
2022/09/28 07:57:05;;;;;;;0.10;0.10;;;8.70;99.90;;;;;;5083355;28;20040;-86
2022/09/28 07:59:35;;;;;;;0.10;0.10;;;8.90;99.90;;;;;;5081625;28;20021;-87
2022/09/28 08:02:00;;;;;;;0.30;0.30;;;9.00;99.90;;;;;;5059215;28;20017;-86
2022/09/28 08:04:27;;;;;;;0.10;0.10;;;9.00;99.90;;;;;;5079013;28;20052;-86
2022/09/28 08:06:52;;;;;;;0.10;0.10;;;9.10;99.90;;;;;;5059446;28;20076;-86
2022/09/28 08:09:18;;;;;;;0.10;0.10;;;9.20;99.90;;;;;;5059461;28;20048;-86
2022/09/28 08:12:00;;;;;;;0.30;0.30;;;9.10;99.90;;;;;;5075239;28;20032;-87
2022/09/28 08:14:26;;;;;;;0.30;0.30;;;9.20;99.90;;;;;;5056317;28;20017;-86
2022/09/28 08:16:52;;;;;;;11.02;4.93;;;9.20;99.90;;;;;;5059754;28;20047;-88
2022/09/28 08:19:17;;;;;;;2.95;2.45;;;9.40;99.90;;;;;;5058943;28;20513;-90
2022/09/28 08:21:46;;;;;;;2.45;1.13;;;9.50;99.90;;;;;;5042297;28;20021;-86
2022/09/28 08:24:14;;;;;;;4.68;4.15;;;9.60;99.90;;;;;;5040228;28;20029;-86
2022/09/28 08:26:41;;;;;;;0.50;0.47;;;9.60;99.90;;;;;;5040171;28;20074;-85
2022/09/28 08:29:07;;;;;;;3.53;1.65;;;9.60;99.90;;;;;;5055882;28;20486;-85
2022/09/28 08:31:33;;;;;;;0.10;0.10;;;9.80;99.90;;;;;;5039549;28;20029;-87
2022/09/28 08:33:58;;;;;;;1.27;0.45;;;9.80;99.90;;;;;;5039363;28;20096;-87
2022/09/28 08:36:24;;;;;;;4.80;1.60;;;9.90;99.90;;;;;;5040428;28;20057;-88
2022/09/28 08:38:50;;;;;;;2.40;0.85;;;9.90;99.90;;;;;;5055931;28;20114;-86
2022/09/28 08:41:41;;;;;;;0.88;0.77;;;10.10;99.90;;;;;;5063306;28;20009;-86
2022/09/28 08:44:14;;;;;;;0.20;0.20;;;9.90;99.90;;;;;;5062780;28;20143;-86
2022/09/28 08:55:11;;;;;;;0.40;0.30;;;9.30;99.90;;;;;;4968923;28;20089;-87
2022/09/28 08:58:07;;;;;;;0.20;0.20;;;9.30;99.90;;;;;;5023124;28;20068;-87
2022/09/28 09:00:47;;;;;;;0.10;0.10;;;9.30;99.90;;;;;;5020012;28;20030;-87
2022/09/28 09:03:18;;;;;;;0.30;0.30;;;9.30;99.90;;;;;;5018917;28;20539;-87
2022/09/28 09:06:11;;;;;;;0.20;0.20;;;9.20;99.90;;;;;;5018566;28;20084;-87
2022/09/28 09:08:45;;;;;;;0.75;0.45;;;9.20;99.90;;;;;;5019757;28;20025;-85
2022/09/28 09:11:37;;;;;;;0.17;0.17;;;9.20;99.90;;;;;;5020040;28;20025;-87
2022/09/28 09:14:22;;;;;;;0.30;0.30;;;9.20;99.90;;;;;;5032873;28;20026;-87
2022/09/28 09:17:04;;;;;;;0.15;0.15;;;9.30;99.90;;;;;;5017955;28;20028;-88
2022/09/28 09:19:34;;;;;;;1.85;0.70;;;9.40;99.90;;;;;;5036391;28;20370;-89
2022/09/28 09:22:37;;;;;;;0.17;0.17;;;9.40;99.90;;;;;;5018782;28;20032;-86
2022/09/28 09:25:14;;;;;;;0.20;0.20;;;9.80;99.90;;;;;;5019579;28;20034;-86
2022/09/28 09:27:49;;;;;;;0.25;0.25;;;9.60;99.90;;;;;;5034869;28;20033;-86
2022/09/28 09:30:18;;;;;;;0.40;0.40;;;9.50;99.90;;;;;;5018337;28;20036;-87
2022/09/28 09:32:56;;;;;;;0.10;0.10;;;9.50;99.90;;;;;;5033693;28;20529;-87
2022/09/28 09:35:36;;;;;;;0.32;0.32;;;9.70;99.90;;;;;;5017055;28;20517;-86
2022/09/28 09:38:23;;;;;;;0.40;0.30;;;9.60;99.90;;;;;;5033396;28;20029;-87
2022/09/28 09:40:58;;;;;;;0.10;0.10;;;9.50;99.90;;;;;;5016911;28;20124;-86
2022/09/28 09:43:36;;;;;;;0.73;0.40;;;9.60;99.90;;;;;;5016840;28;20021;-87
2022/09/28 09:46:26;;;;;;;0.38;0.38;;;9.60;99.90;;;;;;5033918;28;20025;-86
2022/09/28 09:49:00;;;;;;;0.13;0.13;;;9.70;99.90;;;;;;5019199;28;20394;-87
2022/09/28 09:51:58;;;;;;;0.28;0.28;;;9.90;99.90;;;;;;5034974;28;20479;-87
2022/09/28 09:54:43;;;;;;;0.20;0.20;;;9.90;99.90;;;;;;5041078;28;20141;-87
2022/09/28 09:57:50;;;;;;;1.23;0.38;;;9.90;99.90;;;;;;5050442;28;20048;-86
2022/09/28 10:00:19;;;;;;;0.10;0.10;;;9.90;99.90;;;;;;5058564;28;20064;-86
2022/09/28 10:02:47;;;;;;;0.85;0.20;;;10.00;99.90;;;;;;5057545;28;20028;-85
2022/09/28 10:05:28;;;;;;;0.20;0.20;;;10.20;99.90;;;;;;5074554;28;20056;-85
2022/09/28 10:11:46;;;;;;;0.10;0.10;;;10.20;99.90;;;;;;5035067;28;20033;-85
2022/09/28 10:14:23;;;;;;;0.10;0.10;;;10.10;99.90;;;;;;5006093;28;20041;-85
2022/09/28 10:16:54;;;;;;;0.22;0.22;;;10.20;99.90;;;;;;5034738;28;20116;-86
2022/09/28 10:19:31;;;;;;;0.10;0.10;;;10.30;99.90;;;;;;5034745;28;20033;-85
2022/09/28 10:22:01;;;;;;;0.25;0.25;;;10.50;99.90;;;;;;5034363;28;20018;-85
2022/09/28 10:24:50;;;;;;;0.47;0.47;;;10.40;99.90;;;;;;5033392;28;20124;-84
2022/09/28 10:27:30;;;;;;;0.10;0.10;;;10.40;99.90;;;;;;5066348;28;20020;-87
2022/09/28 10:30:10;;;;;;;0.38;0.38;;;10.40;99.90;;;;;;5056553;28;20028;-86
2022/09/28 10:32:38;;;;;;;0.17;0.17;;;10.50;99.90;;;;;;5057209;28;20036;-85
2022/09/28 10:35:20;;;;;;;0.10;0.10;;;10.50;99.90;;;;;;5055052;28;20028;-86
2022/09/28 10:37:56;;;;;;;0.10;0.10;;;10.50;99.90;;;;;;5055943;28;20025;-85
2022/09/28 10:40:42;;;;;;;0.10;0.10;;;10.70;99.90;;;;;;5055546;28;20025;-84
2022/09/28 10:43:22;;;;;;;0.20;0.20;;;10.80;99.90;;;;;;5037075;28;20514;-84
2022/09/28 10:45:48;;;;;;;0.10;0.10;;;10.90;99.90;;;;;;5053287;28;20032;-85
2022/09/28 10:48:20;;;;;;;0.10;0.10;;;10.90;99.90;;;;;;5053477;28;20122;-86
2022/09/28 10:51:06;;;;;;;1.20;0.95;;;10.80;99.90;;;;;;5036534;28;20167;-86
2022/09/28 10:53:35;;;;;;;0.30;0.30;;;10.90;99.90;;;;;;5039006;28;20060;-87
2022/09/28 10:56:04;;;;;;;0.20;0.10;;;10.90;99.90;;;;;;5037545;28;20025;-87
2022/09/28 10:58:40;;;;;;;0.10;0.10;;;11.00;99.90;;;;;;5037978;28;20028;-86
2022/09/28 11:01:18;;;;;;;0.60;0.50;;;10.70;99.90;;;;;;5054139;28;20071;-85
2022/09/28 11:03:54;;;;;;;0.10;0.10;;;10.90;99.90;;;;;;5036483;28;20029;-87
2022/09/28 11:06:38;;;;;;;0.00;0.00;;;11.10;99.90;;;;;;5056190;28;20021;-86
2022/09/28 11:09:26;;;;;;;0.20;0.20;;;11.30;99.90;;;;;;5035812;28;20036;-85
2022/09/28 11:11:51;;;;;;;0.10;0.10;;;11.20;99.90;;;;;;5051548;28;20029;-85
2022/09/28 11:14:35;;;;;;;0.05;0.05;;;11.00;99.90;;;;;;5036404;28;20035;-86
2022/09/28 11:17:15;;;;;;;0.10;0.10;;;10.90;99.90;;;;;;5061510;28;20073;-87
2022/09/28 11:19:46;;;;;;;0.35;0.35;;;10.90;99.90;;;;;;5063383;28;20028;-84
2022/09/28 11:22:22;;;;;;;0.10;0.10;;;11.00;99.90;;;;;;5056576;28;20063;-86
2022/09/28 11:24:49;;;;;;;0.20;0.20;;;11.00;99.90;;;;;;5056556;28;20389;-85
2022/09/28 11:27:26;;;;;;;0.10;0.10;;;11.00;99.90;;;;;;5075538;28;20028;-87
2022/09/28 11:29:58;;;;;;;1.15;0.95;;;11.00;99.90;;;;;;5072417;28;20017;-87
2022/09/28 11:32:41;;;;;;;0.35;0.17;;;11.00;99.90;;;;;;5045209;28;20074;-87
2022/09/28 11:35:18;;;;;;;0.20;0.20;;;10.90;99.90;;;;;;5036328;28;20401;-86
2022/09/28 11:37:55;;;;;;;0.10;0.10;;;11.00;99.90;;;;;;5038195;28;20040;-86
2022/09/28 11:40:54;;;;;;;0.20;0.20;;;11.10;99.90;;;;;;5037724;28;20029;-86
2022/09/28 11:44:04;;;;;;;2.72;0.25;;;11.00;99.90;;;;;;4983191;28;20124;-85
2022/09/28 11:47:27;;;;;;;;;;;;;;;;;;;;;
2022/09/28 11:50:35;;;;;;;0.20;0.20;;;11.00;99.90;;;;;;5055282;28;20033;-86
2022/09/28 11:53:33;;;;;;;0.10;0.10;;;11.30;99.90;;;;;;5075533;28;20098;-85
2022/09/28 11:56:15;;;;;;;0.05;0.05;;;11.40;99.90;;;;;;5041662;28;20482;-85
2022/09/28 11:59:04;;;;;;;0.10;0.10;;;11.50;99.90;;;;;;5056855;28;20383;-85
2022/09/28 12:01:44;;;;;;;0.10;0.10;;;11.50;99.90;;;;;;5057374;28;20017;-87
2022/09/28 12:04:22;;;;;;;0.10;0.10;;;11.50;99.90;;;;;;5039021;28;20032;-86
2022/09/28 12:07:11;;;;;;;0.10;0.10;;;11.50;99.90;;;;;;5039180;28;20394;-86
2022/09/28 12:10:08;;;;;;;0.10;0.10;;;11.30;99.90;;;;;;5040388;28;20367;-87
2022/09/28 12:12:50;;;;;;;0.20;0.20;;;11.30;99.90;;;;;;5038813;28;20021;-87
2022/09/28 12:15:33;;;;;;;0.20;0.20;;;11.20;99.90;;;;;;5038533;28;20021;-86
2022/09/28 12:18:31;;;;;;;0.73;0.73;;;10.90;99.90;;;;;;5041375;28;20052;-87
2022/09/28 12:21:26;;;;;;;0.10;0.10;;;11.00;99.90;;;;;;5029778;28;20029;-87
2022/09/28 12:23:55;;;;;;;0.10;0.10;;;11.20;99.90;;;;;;5020788;28;20398;-87
2022/09/28 12:26:45;;;;;;;0.17;0.17;;;11.40;99.90;;;;;;5069907;22;20275;-74
2022/09/28 12:29:21;;;;;;;0.10;0.10;;;11.80;99.90;;;;;;5065603;28;20100;-74
2022/09/28 12:32:06;;;;;;;0.17;0.17;;;11.50;99.90;;;;;;5051780;28;20024;-74
2022/09/28 12:34:32;;;;;;;0.20;0.20;;;11.40;99.90;;;;;;5053487;28;20112;-74
2022/09/28 12:37:11;;;;;;;0.10;0.10;;;11.20;99.90;;;;;;5054642;28;20108;-74
2022/09/28 12:39:59;;;;;;;0.15;0.15;;;11.20;99.90;;;;;;5053439;28;20032;-73
2022/09/28 12:42:46;;;;;;;0.20;0.20;;;11.40;99.90;;;;;;5065947;28;20020;-73
2022/09/28 12:45:44;;;;;;;0.10;0.10;;;11.50;99.90;;;;;;5074508;28;20033;-74
2022/09/28 12:48:40;;;;;;;0.20;0.20;;;11.70;99.90;;;;;;5072918;28;20403;-74
2022/09/28 12:51:24;;;;;;;0.10;0.10;;;11.90;99.90;;;;;;5073356;28;20066;-73
2022/09/28 12:53:53;;;;;;;0.40;0.40;;;11.70;99.90;;;;;;5074613;28;20024;-74
2022/09/28 12:56:28;;;;;;;0.10;0.10;;;11.50;99.90;;;;;;5074424;28;20035;-74
2022/09/28 12:59:35;;;;;;;0.10;0.10;;;11.50;99.90;;;;;;5067878;28;20025;-74
2022/09/28 13:02:20;;;;;;;0.20;0.20;;;11.60;99.90;;;;;;5052360;28;20061;-72
2022/09/28 13:05:04;;;;;;;0.10;0.10;;;11.40;99.90;;;;;;5050916;28;20083;-74
2022/09/28 13:07:56;;;;;;;0.10;0.10;;;11.20;99.90;;;;;;5032697;28;20116;-74
2022/09/28 13:10:42;;;;;;;0.30;0.20;;;11.50;99.90;;;;;;5049355;28;20029;-74
2022/09/28 13:13:36;;;;;;;0.10;0.10;;;11.20;99.90;;;;;;5050716;28;20024;-75
2022/09/28 13:16:25;;;;;;;0.10;0.10;;;11.10;99.90;;;;;;5049241;28;20033;-74
2022/09/28 13:19:12;;;;;;;0.10;0.10;;;11.10;99.90;;;;;;5048144;28;20021;-73
2022/09/28 13:21:44;;;;;;;0.10;0.10;;;11.20;99.90;;;;;;5050489;28;20031;-74
2022/09/28 13:24:17;;;;;;;0.10;0.10;;;11.50;99.90;;;;;;5052316;28;20021;-74
2022/09/28 13:26:46;;;;;;;0.32;0.20;;;11.40;99.90;;;;;;5052901;28;20416;-75
2022/09/28 13:29:16;;;;;;;0.10;0.10;;;11.40;99.90;;;;;;5052848;28;20412;-73
2022/09/28 13:31:49;;;;;;;0.10;0.10;;;11.50;99.90;;;;;;5053491;28;20396;-73
2022/09/28 13:34:23;;;;;;;0.10;0.10;;;11.50;99.90;;;;;;5047877;28;20481;-74
2022/09/28 13:37:08;;;;;;;0.10;0.10;;;11.40;99.90;;;;;;5045823;28;20029;-73
2022/09/28 13:39:35;;;;;;;0.10;0.10;;;11.40;99.90;;;;;;5033582;28;20036;-74
2022/09/28 13:42:01;;;;;;;0.20;0.20;;;11.60;99.90;;;;;;5031872;28;20083;-74
2022/09/28 13:44:58;;;;;;;0.15;0.15;;;11.70;99.90;;;;;;5033069;28;20071;-74
2022/09/28 13:47:44;;;;;;;0.10;0.10;;;11.60;99.90;;;;;;5012674;28;20029;-74
2022/09/28 13:50:28;;;;;;;0.20;0.20;;;11.70;99.90;;;;;;5033068;28;20071;-74
2022/09/28 13:53:02;;;;;;;0.15;0.15;;;11.70;99.90;;;;;;5033012;28;20116;-74